Time;durP1;ratioP1;P1;durP2;ratioP2;P2;SDS_P1;SDS_P2;PMS_P1;PMS_P2;Temp;Humidity;BMP_temperature;BMP_pressure;BME280_temperature;BME280_humidity;BME280_pressure;Samples;Min_cycle;Max_cycle;Signal;HPM_P1;HPM_P2
2022/05/05 00:02:13;;;;;;;;;;;;;;;25.16;10.96;100951.84;5118843;27;19922;-74
2022/05/05 00:04:38;;;;;;;;;;;;;;;25.16;10.84;100960.06;5137229;27;19919;-74
2022/05/05 00:07:04;;;;;;;;;;;;;;;25.17;10.90;100949.97;5136814;27;20043;-75
2022/05/05 00:09:29;;;;;;;;;;;;;;;25.15;10.91;100952.13;5137033;27;20288;-76
2022/05/05 00:14:40;;;;;;;;;;;;;;;25.15;10.84;100944.75;5136782;27;19964;-74
2022/05/05 00:17:06;;;;;;;;;;;;;;;25.15;10.99;100944.75;5136795;27;20315;-74
2022/05/05 00:19:35;;;;;;;;;;;;;;;25.15;11.14;100939.28;5136647;27;19915;-75
2022/05/05 00:22:00;;;;;;;;;;;;;;;25.15;11.06;100946.66;5136282;27;19915;-73
2022/05/05 00:24:25;;;;;;;;;;;;;;;25.15;11.12;100939.28;5136300;27;19972;-74
2022/05/05 00:26:51;;;;;;;;;;;;;;;25.14;11.14;100937.63;5136553;27;20277;-76
2022/05/05 00:29:16;;;;;;;;;;;;;;;25.14;11.03;100937.63;5136009;27;19915;-73
2022/05/05 00:31:42;;;;;;;;;;;;;;;25.15;10.97;100936.56;5136974;27;19916;-73
2022/05/05 00:34:07;;;;;;;;;;;;;;;25.15;11.31;100938.44;5136785;27;20344;-75
2022/05/05 00:36:32;;;;;;;;;;;;;;;25.14;11.29;100940.38;5136645;27;19923;-76
2022/05/05 00:38:58;;;;;;;;;;;;;;;25.16;11.04;100940.91;5136244;27;20258;-73
2022/05/05 00:41:23;;;;;;;;;;;;;;;25.15;10.96;100950.22;5136514;27;19922;-75
2022/05/05 00:43:48;;;;;;;;;;;;;;;25.15;11.03;100941.19;5136425;27;20274;-75
2022/05/05 00:46:13;;;;;;;;;;;;;;;25.13;11.22;100936.00;5136296;27;20022;-74
2022/05/05 00:48:42;;;;;;;;;;;;;;;25.12;11.03;100935.16;5136420;27;19924;-74
2022/05/05 00:51:07;;;;;;;;;;;;;;;25.14;11.09;100931.34;5136101;27;20207;-76
2022/05/05 00:53:33;;;;;;;;;;;;;;;25.12;11.29;100935.16;5136321;27;19936;-73
2022/05/05 00:56:03;;;;;;;;;;;;;;;25.14;11.04;100934.09;5117952;27;20328;-75
2022/05/05 00:58:28;;;;;;;;;;;;;;;25.14;11.08;100940.38;5117762;27;19958;-75
2022/05/05 01:00:54;;;;;;;;;;;;;;;25.15;11.19;100946.66;5117224;27;20254;-74
2022/05/05 01:03:19;;;;;;;;;;;;;;;25.14;11.11;100931.34;5135996;27;19919;-74
2022/05/05 01:05:44;;;;;;;;;;;;;;;25.14;10.92;100937.63;5135721;27;19915;-74
2022/05/05 01:08:10;;;;;;;;;;;;;;;25.14;11.00;100928.63;5135466;27;20317;-76
2022/05/05 01:10:35;;;;;;;;;;;;;;;25.13;11.15;100941.47;5135386;27;19920;-74
2022/05/05 01:13:03;;;;;;;;;;;;;;;25.13;11.06;100936.00;5135664;27;19931;-75
2022/05/05 01:15:28;;;;;;;;;;;;;;;25.12;11.00;100921.50;5135616;27;20002;-77
2022/05/05 01:17:54;;;;;;;;;;;;;;;25.13;11.03;100936.00;5135335;27;19950;-73
2022/05/05 01:20:19;;;;;;;;;;;;;;;25.12;11.06;100928.88;5135278;27;19967;-74
2022/05/05 01:22:45;;;;;;;;;;;;;;;25.12;11.06;100926.16;5136061;27;19915;-76
2022/05/05 01:28:12;;;;;;;;;;;;;;;25.12;11.12;100915.22;5135336;27;19923;-74
2022/05/05 01:30:41;;;;;;;;;;;;;;;25.10;11.24;100910.00;5135541;27;19919;-74
2022/05/05 01:33:10;;;;;;;;;;;;;;;25.10;11.04;100912.75;5135356;27;19921;-73
2022/05/05 01:35:36;;;;;;;;;;;;;;;25.10;11.00;100912.75;5135341;27;20047;-75
2022/05/05 01:38:01;;;;;;;;;;;;;;;25.10;11.15;100906.47;5134959;27;19927;-74
2022/05/05 01:40:26;;;;;;;;;;;;;;;25.10;11.19;100909.19;5135135;27;20408;-74
2022/05/05 01:42:51;;;;;;;;;;;;;;;25.10;11.35;100909.19;5134992;27;19915;-74
2022/05/05 01:45:17;;;;;;;;;;;;;;;25.12;11.18;100917.94;5135024;27;19928;-76
2022/05/05 01:47:42;;;;;;;;;;;;;;;25.11;11.00;100916.28;5135079;27;19922;-74
2022/05/05 01:50:07;;;;;;;;;;;;;;;25.11;11.11;100910.81;5134777;27;20318;-74
2022/05/05 01:52:33;;;;;;;;;;;;;;;25.11;11.30;100905.34;5135545;27;19926;-76
2022/05/05 01:54:58;;;;;;;;;;;;;;;25.09;11.19;100897.44;5134851;28;20302;-74
2022/05/05 01:57:23;;;;;;;;;;;;;;;25.09;11.05;100893.88;5134338;27;19923;-76
2022/05/05 01:59:49;;;;;;;;;;;;;;;25.09;11.29;100893.88;5135009;28;20414;-75
2022/05/05 02:02:14;;;;;;;;;;;;;;;25.09;11.04;100880.19;5134982;28;20010;-73
2022/05/05 02:04:39;;;;;;;;;;;;;;;25.10;11.00;100887.31;5134986;28;20357;-75
2022/05/05 02:07:04;;;;;;;;;;;;;;;25.10;11.05;100885.41;5134625;28;19915;-74
2022/05/05 02:09:30;;;;;;;;;;;;;;;25.10;11.06;100890.06;5134566;28;19915;-74
2022/05/05 02:11:56;;;;;;;;;;;;;;;25.10;11.04;100892.78;5134472;28;19919;-75
2022/05/05 02:14:24;;;;;;;;;;;;;;;25.10;11.17;100890.06;5116688;28;19916;-75
2022/05/05 02:16:52;;;;;;;;;;;;;;;25.10;11.04;100895.53;5134874;28;19919;-75
2022/05/05 02:19:17;;;;;;;;;;;;;;;25.08;11.28;100895.81;5134902;28;19992;-74
2022/05/05 02:21:43;;;;;;;;;;;;;;;25.10;11.23;100887.31;5134464;28;20358;-73
2022/05/05 02:24:08;;;;;;;;;;;;;;;25.09;11.29;100874.72;5134689;28;19930;-73
2022/05/05 02:26:33;;;;;;;;;;;;;;;25.09;10.97;100874.72;5134499;28;19915;-75
2022/05/05 02:28:58;;;;;;;;;;;;;;;25.09;11.05;100874.72;5134913;28;20006;-75
2022/05/05 02:31:24;;;;;;;;;;;;;;;25.08;11.16;100878.59;5134613;28;20361;-74
2022/05/05 02:33:49;;;;;;;;;;;;;;;25.07;11.12;100876.94;5134740;28;19920;-74
2022/05/05 02:38:58;;;;;;;;;;;;;;;25.06;11.45;100878.84;5093939;28;20335;-76
2022/05/05 02:41:24;;;;;;;;;;;;;;;25.06;11.18;100872.53;5093499;28;19952;-74
2022/05/05 02:43:49;;;;;;;;;;;;;;;25.06;11.16;100870.66;5093536;28;20003;-75
2022/05/05 02:46:14;;;;;;;;;;;;;;;25.06;11.36;100864.34;5093642;28;19927;-77
2022/05/05 02:48:40;;;;;;;;;;;;;;;25.05;11.18;100860.78;5093709;28;19916;-74
2022/05/05 02:51:05;;;;;;;;;;;;;;;25.06;11.22;100856.13;5093503;28;20346;-74
2022/05/05 02:56:16;;;;;;;;;;;;;;;25.07;11.16;100860.53;5093655;28;20353;-74
2022/05/05 02:58:41;;;;;;;;;;;;;;;25.07;11.09;100855.06;5093642;28;19923;-73
2022/05/05 03:01:06;;;;;;;;;;;;;;;25.08;11.22;100862.16;5093606;28;20336;-75
2022/05/05 03:03:32;;;;;;;;;;;;;;;25.10;11.29;100857.25;5093518;28;19916;-74
2022/05/05 03:05:57;;;;;;;;;;;;;;;25.14;11.14;100865.72;5093615;28;19939;-74
2022/05/05 03:08:22;;;;;;;;;;;;;;;25.18;11.23;100862.16;5094411;28;19924;-75
2022/05/05 03:10:47;;;;;;;;;;;;;;;25.22;11.30;100855.03;5097028;28;20010;-74
2022/05/05 03:13:13;;;;;;;;;;;;;;;25.24;11.38;100863.78;5097671;28;20373;-74
2022/05/05 03:15:38;;;;;;;;;;;;;;;25.30;11.22;100853.69;5096798;28;19916;-75
2022/05/05 03:18:03;;;;;;;;;;;;;;;25.37;11.15;100864.34;5096842;28;19961;-74
2022/05/05 03:20:29;;;;;;;;;;;;;;;25.38;11.14;100864.09;5097154;28;20369;-73
2022/05/05 03:22:54;;;;;;;;;;;;;;;25.44;11.02;100862.16;5096607;28;20370;-74
2022/05/05 03:25:19;;;;;;;;;;;;;;;25.46;11.16;100862.72;5096475;28;19931;-75
2022/05/05 03:27:45;;;;;;;;;;;;;;;25.52;11.10;100858.88;5096825;28;20009;-75
2022/05/05 03:30:10;;;;;;;;;;;;;;;25.55;11.15;100850.09;5096839;28;20362;-75
2022/05/05 03:32:35;;;;;;;;;;;;;;;25.57;11.22;100849.84;5096336;28;19916;-74
2022/05/05 03:35:01;;;;;;;;;;;;;;;25.59;11.05;100851.19;5096576;28;20097;-73
2022/05/05 03:37:30;;;;;;;;;;;;;;;25.63;11.17;100851.44;5112147;27;20307;-75
2022/05/05 03:39:55;;;;;;;;;;;;;;;25.68;11.17;100852.28;5137549;27;19923;-76
2022/05/05 03:42:20;;;;;;;;;;;;;;;25.71;11.09;100845.41;5137424;27;20272;-74
2022/05/05 03:44:46;;;;;;;;;;;;;;;25.72;11.23;100849.00;5137287;27;20383;-74
2022/05/05 03:47:11;;;;;;;;;;;;;;;25.72;11.17;100852.53;5137220;27;19915;-76
2022/05/05 03:49:37;;;;;;;;;;;;;;;25.75;11.07;100842.94;5137429;27;19974;-75
2022/05/05 03:52:02;;;;;;;;;;;;;;;25.77;10.90;100846.22;5137041;27;20365;-75
2022/05/05 03:54:28;;;;;;;;;;;;;;;25.77;11.09;100855.25;5137890;27;20000;-76
2022/05/05 03:56:53;;;;;;;;;;;;;;;25.78;11.03;100853.34;5136842;27;19920;-74
2022/05/05 03:59:18;;;;;;;;;;;;;;;25.78;10.99;100843.19;5137459;27;20015;-76
2022/05/05 04:01:43;;;;;;;;;;;;;;;25.81;11.21;100855.53;5118913;27;20384;-77
2022/05/05 04:04:09;;;;;;;;;;;;;;;25.85;10.87;100842.91;5137283;27;20421;-73
2022/05/05 04:06:34;;;;;;;;;;;;;;;25.86;11.27;100845.38;5136801;27;19916;-75
2022/05/05 04:09:00;;;;;;;;;;;;;;;25.85;11.06;100842.91;5137077;27;19923;-75
2022/05/05 04:11:25;;;;;;;;;;;;;;;25.88;10.93;100842.34;5136981;27;20426;-75
2022/05/05 04:13:50;;;;;;;;;;;;;;;25.88;11.02;100839.63;5137161;27;19937;-73
2022/05/05 04:16:15;;;;;;;;;;;;;;;25.88;11.08;100839.63;5137044;27;20342;-76
2022/05/05 04:18:41;;;;;;;;;;;;;;;25.89;11.11;100844.00;5137422;27;19937;-74
2022/05/05 04:21:06;;;;;;;;;;;;;;;25.90;11.02;100844.81;5135958;27;19957;-74
2022/05/05 04:23:31;;;;;;;;;;;;;;;25.90;11.05;100845.63;5136896;27;20345;-74
2022/05/05 04:25:57;;;;;;;;;;;;;;;25.89;11.14;100841.25;5136305;27;20282;-76
2022/05/05 04:28:22;;;;;;;;;;;;;;;25.91;11.25;100841.78;5136759;27;19915;-74
2022/05/05 04:30:47;;;;;;;;;;;;;;;25.96;11.19;100843.75;5136404;27;20243;-74
2022/05/05 04:33:13;;;;;;;;;;;;;;;25.96;11.00;100838.25;5136273;27;19922;-75
2022/05/05 04:35:38;;;;;;;;;;;;;;;25.97;11.01;100850.84;5117508;27;19922;-77
2022/05/05 04:38:06;;;;;;;;;;;;;;;25.97;11.16;100839.88;5117677;27;20382;-75
2022/05/05 04:40:31;;;;;;;;;;;;;;;25.99;10.98;100843.16;5136061;27;20350;-76
2022/05/05 04:42:56;;;;;;;;;;;;;;;25.98;11.28;100831.38;5136526;27;19919;-75
2022/05/05 04:45:22;;;;;;;;;;;;;;;25.97;11.36;100832.47;5136203;27;20381;-75
2022/05/05 04:47:47;;;;;;;;;;;;;;;25.98;11.10;100831.38;5136325;27;19976;-74
2022/05/05 04:50:12;;;;;;;;;;;;;;;26.00;11.23;100831.91;5136104;27;20285;-75
2022/05/05 04:52:38;;;;;;;;;;;;;;;26.07;11.08;100833.56;5136596;27;19928;-75
2022/05/05 04:55:03;;;;;;;;;;;;;;;26.02;11.22;100835.19;5135978;27;19915;-76
2022/05/05 04:57:28;;;;;;;;;;;;;;;26.04;11.12;100830.28;5135977;27;20373;-75
2022/05/05 04:59:54;;;;;;;;;;;;;;;26.03;11.19;100833.28;5117630;27;19977;-76
2022/05/05 05:02:19;;;;;;;;;;;;;;;26.03;11.34;100831.38;5135539;27;20433;-75
2022/05/05 05:04:44;;;;;;;;;;;;;;;26.09;11.27;100823.13;5135845;27;19915;-76
2022/05/05 05:07:10;;;;;;;;;;;;;;;26.08;11.31;100826.97;5135719;27;19916;-73
2022/05/05 05:09:35;;;;;;;;;;;;;;;26.10;11.37;100833.81;5135772;27;19930;-75
2022/05/05 05:12:00;;;;;;;;;;;;;;;26.12;11.54;100819.84;5135901;27;20337;-75
2022/05/05 05:14:26;;;;;;;;;;;;;;;26.04;11.69;100826.69;5136163;27;19968;-77
2022/05/05 05:16:51;;;;;;;;;;;;;;;26.14;11.85;100823.09;5135622;27;20288;-75
2022/05/05 05:19:17;;;;;;;;;;;;;;;26.18;12.15;100815.94;5135439;27;19919;-74
2022/05/05 05:21:42;;;;;;;;;;;;;;;26.23;12.10;100815.94;5135223;27;19939;-76
2022/05/05 05:24:07;;;;;;;;;;;;;;;26.22;11.98;100812.38;5135454;27;20026;-76
2022/05/05 05:26:32;;;;;;;;;;;;;;;26.24;12.11;100817.56;5135393;27;20369;-74
2022/05/05 05:28:58;;;;;;;;;;;;;;;26.19;11.98;100812.13;5135321;27;19984;-75
2022/05/05 05:31:23;;;;;;;;;;;;;;;26.18;12.26;100805.84;5134337;27;19998;-76
2022/05/05 05:33:48;;;;;;;;;;;;;;;26.23;12.35;100804.97;5135245;27;20361;-77
2022/05/05 05:36:14;;;;;;;;;;;;;;;26.26;12.35;100814.56;5135128;27;19915;-72
2022/05/05 05:38:39;;;;;;;;;;;;;;;26.17;12.29;100826.09;5134996;27;19926;-75
2022/05/05 05:41:04;;;;;;;;;;;;;;;26.18;12.15;100821.44;5134935;27;20369;-75
2022/05/05 05:43:30;;;;;;;;;;;;;;;26.26;12.27;100828.25;5135031;27;19916;-75
2022/05/05 05:45:55;;;;;;;;;;;;;;;26.24;12.41;100818.38;5134877;27;19921;-74
2022/05/05 05:48:23;;;;;;;;;;;;;;;26.29;12.52;100828.50;5134828;27;19915;-75
2022/05/05 05:50:48;;;;;;;;;;;;;;;26.30;12.72;100821.09;5135078;27;19961;-75
2022/05/05 05:53:13;;;;;;;;;;;;;;;26.33;12.85;100821.34;5135346;27;19919;-75
2022/05/05 05:55:38;;;;;;;;;;;;;;;26.30;12.71;100816.47;5135382;27;20378;-76
2022/05/05 05:58:04;;;;;;;;;;;;;;;26.30;12.84;100818.34;5134857;28;20026;-75
2022/05/05 06:00:30;;;;;;;;;;;;;;;26.26;12.93;100820.84;5135133;28;19919;-75
2022/05/05 06:05:39;;;;;;;;;;;;;;;26.32;12.88;100817.00;5134700;28;19968;-74
2022/05/05 06:08:05;;;;;;;;;;;;;;;26.33;13.04;100821.34;5134924;28;19919;-73
2022/05/05 06:10:31;;;;;;;;;;;;;;;26.36;13.09;100815.31;5134597;28;19931;-76
2022/05/05 06:12:56;;;;;;;;;;;;;;;26.43;13.09;100818.53;5134679;28;19915;-77
2022/05/05 06:15:24;;;;;;;;;;;;;;;26.43;13.04;100821.28;5134379;28;20254;-76
2022/05/05 06:17:50;;;;;;;;;;;;;;;26.42;13.12;100814.19;5135023;28;19920;-74
2022/05/05 06:20:15;;;;;;;;;;;;;;;25.58;14.25;100816.72;5134579;28;20299;-74
2022/05/05 06:22:40;;;;;;;;;;;;;;;25.25;14.39;100813.50;5134787;28;19915;-74
2022/05/05 06:25:06;;;;;;;;;;;;;;;25.01;14.46;100817.84;5134575;28;20370;-75
2022/05/05 06:27:31;;;;;;;;;;;;;;;25.64;14.02;100814.78;5135285;28;19951;-74
2022/05/05 06:29:57;;;;;;;;;;;;;;;26.08;13.39;100807.78;5135131;28;20421;-75
2022/05/05 06:32:22;;;;;;;;;;;;;;;26.31;13.31;100807.13;5134688;28;20010;-74
2022/05/05 06:34:47;;;;;;;;;;;;;;;26.45;13.04;100811.97;5134221;28;19915;-76
2022/05/05 06:37:12;;;;;;;;;;;;;;;26.47;13.21;100815.25;5134409;28;19915;-74
2022/05/05 06:39:38;;;;;;;;;;;;;;;26.56;12.86;100803.41;5134451;28;20315;-72
2022/05/05 06:42:03;;;;;;;;;;;;;;;26.52;13.08;100804.25;5134641;28;19916;-74
2022/05/05 06:44:29;;;;;;;;;;;;;;;26.57;13.16;100806.97;5137629;27;20338;-74
2022/05/05 06:46:55;;;;;;;;;;;;;;;26.62;13.13;100801.47;5138871;27;19922;-74
2022/05/05 06:49:20;;;;;;;;;;;;;;;26.60;13.27;100804.47;5138436;27;19925;-74
2022/05/05 06:51:45;;;;;;;;;;;;;;;26.63;13.19;100802.28;5138357;27;19915;-73
2022/05/05 06:54:10;;;;;;;;;;;;;;;26.49;13.25;100805.66;5138200;27;19938;-74
2022/05/05 06:56:36;;;;;;;;;;;;;;;26.66;13.13;100793.50;5138293;27;19941;-74
2022/05/05 06:59:01;;;;;;;;;;;;;;;26.61;13.37;100797.03;5137970;27;20310;-75
2022/05/05 07:06:54;;;;;;;;;;;;;;;26.70;13.29;100803.59;5137993;27;20027;-74
2022/05/05 07:12:03;;;;;;;;;;;;;;;26.71;13.37;100805.22;5138514;27;19938;-73
2022/05/05 07:14:29;;;;;;;;;;;;;;;26.75;13.15;100799.97;5119691;27;19919;-73
2022/05/05 07:16:54;;;;;;;;;;;;;;;26.71;13.36;100807.97;5137594;27;20357;-75
2022/05/05 07:19:19;;;;;;;;;;;;;;;26.75;13.48;100806.31;5138710;27;19926;-75
2022/05/05 07:21:45;;;;;;;;;;;;;;;26.73;13.18;100808.53;5138360;27;19915;-76
2022/05/05 07:24:10;;;;;;;;;;;;;;;26.93;13.10;100801.22;5137698;27;19998;-75
2022/05/05 07:26:35;;;;;;;;;;;;;;;27.08;13.04;100809.31;5137829;27;19915;-74
2022/05/05 07:29:00;;;;;;;;;;;;;;;27.09;13.26;100808.19;5138159;27;20360;-76
2022/05/05 07:31:26;;;;;;;;;;;;;;;27.16;13.24;100802.38;5137773;27;19915;-73
2022/05/05 07:33:51;;;;;;;;;;;;;;;27.12;13.29;100815.03;5138324;27;20017;-75
2022/05/05 07:36:16;;;;;;;;;;;;;;;27.10;13.17;100820.00;5137906;27;19916;-74
2022/05/05 07:38:42;;;;;;;;;;;;;;;27.05;13.52;100820.88;5137847;27;20366;-73
2022/05/05 07:41:07;;;;;;;;;;;;;;;27.11;13.29;100814.25;5137857;27;20044;-75
2022/05/05 07:43:32;;;;;;;;;;;;;;;27.31;13.55;100818.72;5138360;27;19922;-75
2022/05/05 07:45:57;;;;;;;;;;;;;;;27.33;13.39;100816.50;5137588;27;20361;-75
2022/05/05 07:48:22;;;;;;;;;;;;;;;27.34;13.76;100817.34;5138097;27;19919;-74
2022/05/05 07:50:48;;;;;;;;;;;;;;;27.39;13.70;100814.53;5144950;27;20349;-74
2022/05/05 07:53:14;;;;;;;;;;;;;;;27.32;14.08;100814.03;5157685;27;19915;-74
2022/05/05 07:55:39;;;;;;;;;;;;;;;27.43;13.82;100818.34;5157334;27;19931;-74
2022/05/05 07:58:04;;;;;;;;;;;;;;;27.46;14.01;100815.00;5158372;27;19951;-75
2022/05/05 08:00:30;;;;;;;;;;;;;;;27.49;13.97;100819.09;5158475;27;19926;-73
2022/05/05 08:02:55;;;;;;;;;;;;;;;27.50;13.94;100818.00;5159501;27;19984;-74
2022/05/05 08:05:20;;;;;;;;;;;;;;;27.54;13.98;100828.09;5157162;27;19915;-75
2022/05/05 08:07:46;;;;;;;;;;;;;;;27.57;13.83;100823.13;5157418;27;19966;-75
2022/05/05 08:10:11;;;;;;;;;;;;;;;27.62;13.90;100818.41;5158333;27;19964;-74
2022/05/05 08:12:36;;;;;;;;;;;;;;;27.62;13.90;100820.34;5158715;27;19916;-76
2022/05/05 08:15:02;;;;;;;;;;;;;;;27.65;13.79;100817.00;5158280;27;19987;-77
2022/05/05 08:17:28;;;;;;;;;;;;;;;27.66;13.85;100816.69;5158957;27;19991;-75
2022/05/05 08:19:53;;;;;;;;;;;;;;;27.73;13.71;100819.09;5159501;27;19931;-74
2022/05/05 08:22:18;;;;;;;;;;;;;;;27.86;13.71;100814.84;5159520;27;19925;-75
2022/05/05 08:30:12;;;;;;;;;;;;;;;27.94;13.69;100807.88;5158768;27;19914;-74
2022/05/05 08:32:37;;;;;;;;;;;;;;;27.90;13.62;100824.09;5140417;27;19939;-73
2022/05/05 08:35:03;;;;;;;;;;;;;;;27.95;13.51;100806.78;5158604;27;19915;-75
2022/05/05 08:37:28;;;;;;;;;;;;;;;28.00;13.60;100806.72;5157958;27;19915;-74
2022/05/05 08:39:53;;;;;;;;;;;;;;;28.04;13.87;100811.31;5155894;27;19926;-74
2022/05/05 08:42:18;;;;;;;;;;;;;;;28.07;13.64;100807.19;5138254;27;19973;-73
2022/05/05 08:44:44;;;;;;;;;;;;;;;28.07;13.71;100801.69;5137474;27;20282;-73
2022/05/05 08:47:10;;;;;;;;;;;;;;;28.12;13.67;100809.84;5136603;27;19919;-74
2022/05/05 08:49:36;;;;;;;;;;;;;;;28.11;13.77;100813.69;5118845;27;19916;-74
2022/05/05 08:52:03;;;;;;;;;;;;;;;28.16;13.50;100810.88;5136520;27;19950;-74
2022/05/05 08:54:28;;;;;;;;;;;;;;;28.18;13.58;100814.19;5138380;27;19923;-74
2022/05/05 08:56:54;;;;;;;;;;;;;;;28.26;13.24;100818.19;5136800;27;19915;-75
2022/05/05 08:59:19;;;;;;;;;;;;;;;28.19;13.31;100821.28;5136638;27;20008;-74
2022/05/05 09:01:44;;;;;;;;;;;;;;;28.16;13.47;100821.88;5136178;27;20010;-75
2022/05/05 09:04:10;;;;;;;;;;;;;;;28.13;13.28;100819.75;5136423;27;19948;-74
2022/05/05 09:06:46;;;;;;;;;;;;;;;28.09;13.29;100815.94;5135724;27;19915;-74
2022/05/05 09:09:17;;;;;;;;;;;;;;;28.06;13.24;100822.00;5135889;27;19922;-74
2022/05/05 09:11:42;;;;;;;;;;;;;;;28.06;13.41;100822.00;5135772;27;19915;-74
2022/05/05 09:14:08;;;;;;;;;;;;;;;28.06;13.30;100822.84;5135335;27;20015;-75
2022/05/05 09:16:33;;;;;;;;;;;;;;;28.04;13.50;100818.75;5135849;27;19955;-76
2022/05/05 09:19:01;;;;;;;;;;;;;;;28.00;13.46;100817.72;5118105;27;19941;-73
2022/05/05 09:21:34;;;;;;;;;;;;;;;27.85;13.71;100805.75;5135841;27;19923;-75
2022/05/05 09:26:43;;;;;;;;;;;;;;;27.88;13.69;100813.41;5119895;27;19980;-74
2022/05/05 09:29:17;;;;;;;;;;;;;;;27.93;13.55;100815.31;5135507;27;20261;-75
2022/05/05 09:31:43;;;;;;;;;;;;;;;27.87;13.87;100819.19;5135434;27;19921;-75
2022/05/05 09:34:16;;;;;;;;;;;;;;;27.79;13.94;100820.69;5135419;27;20354;-73
2022/05/05 09:36:42;;;;;;;;;;;;;;;27.82;13.91;100828.34;5135531;27;19980;-75
2022/05/05 09:39:08;;;;;;;;;;;;;;;27.79;14.09;100828.09;5116607;27;19927;-76
2022/05/05 09:41:34;;;;;;;;;;;;;;;27.80;13.94;100830.53;5117178;28;19960;-77
2022/05/05 09:44:02;;;;;;;;;;;;;;;27.87;13.82;100817.28;5135104;27;20090;-78
2022/05/05 09:46:28;;;;;;;;;;;;;;;27.85;13.92;100814.00;5136067;27;19916;-77
2022/05/05 09:48:53;;;;;;;;;;;;;;;27.86;13.89;100815.66;5135505;27;20270;-76
2022/05/05 09:51:19;;;;;;;;;;;;;;;27.84;13.99;100815.13;5135444;27;19967;-75
2022/05/05 09:59:29;;;;;;;;;;;;;;;27.90;13.74;100813.94;5134744;28;19922;-76
2022/05/05 10:01:56;;;;;;;;;;;;;;;27.94;13.74;100808.72;5118207;28;19922;-76
2022/05/05 10:04:23;;;;;;;;;;;;;;;27.96;13.98;100808.41;5116391;28;20362;-74
2022/05/05 10:06:48;;;;;;;;;;;;;;;28.02;13.61;100804.50;5134713;28;19977;-74
2022/05/05 10:09:14;;;;;;;;;;;;;;;28.03;13.50;100806.13;5116758;28;19915;-74
2022/05/05 10:11:40;;;;;;;;;;;;;;;28.08;13.77;100803.31;5134555;28;19926;-75
2022/05/05 10:14:06;;;;;;;;;;;;;;;28.08;13.79;100803.31;5134591;28;20362;-73
2022/05/05 10:16:31;;;;;;;;;;;;;;;27.99;14.00;100796.84;5134163;28;19941;-74
2022/05/05 10:19:00;;;;;;;;;;;;;;;28.06;13.77;100802.78;5137096;27;20002;-76
2022/05/05 10:21:30;;;;;;;;;;;;;;;28.09;14.04;100802.19;5138469;27;20326;-75
2022/05/05 10:24:01;;;;;;;;;;;;;;;28.08;13.99;100803.31;5139584;27;19927;-75
2022/05/05 10:26:26;;;;;;;;;;;;;;;28.02;14.10;100799.00;5139609;27;19920;-75
2022/05/05 10:28:52;;;;;;;;;;;;;;;28.08;13.91;100800.56;5138250;27;19923;-73
2022/05/05 10:31:29;;;;;;;;;;;;;;;28.15;13.75;100798.28;5138321;27;19926;-76
2022/05/05 10:33:59;;;;;;;;;;;;;;;28.07;13.98;100801.69;5139479;27;19923;-76
2022/05/05 10:36:25;;;;;;;;;;;;;;;28.17;14.00;100796.03;5122087;27;20010;-73
2022/05/05 10:38:50;;;;;;;;;;;;;;;28.15;14.04;100798.28;5138804;27;20372;-73
2022/05/05 10:41:31;;;;;;;;;;;;;;;28.23;14.30;100788.53;5138286;27;19927;-73
2022/05/05 10:44:15;;;;;;;;;;;;;;;28.20;14.04;100789.97;5138921;27;19983;-76
2022/05/05 10:46:52;;;;;;;;;;;;;;;28.16;14.06;100788.91;5139177;27;19920;-74
2022/05/05 10:49:30;;;;;;;;;;;;;;;28.20;14.00;100791.88;5139372;27;19976;-77
2022/05/05 10:52:13;;;;;;;;;;;;;;;28.33;14.00;100796.63;5138681;27;19923;-73
2022/05/05 10:54:43;;;;;;;;;;;;;;;28.26;14.02;100793.44;5138236;27;19916;-72
2022/05/05 10:57:23;;;;;;;;;;;;;;;28.26;14.31;100793.44;5138239;27;19915;-76
2022/05/05 11:00:07;;;;;;;;;;;;;;;28.29;14.01;100793.66;5138166;27;19915;-73
2022/05/05 11:02:32;;;;;;;;;;;;;;;28.25;14.13;100798.13;5138148;27;19987;-76
2022/05/05 11:05:16;;;;;;;;;;;;;;;28.33;14.24;100798.56;5137884;27;20366;-77
2022/05/05 11:07:43;;;;;;;;;;;;;;;28.31;14.06;100798.88;5138189;27;19954;-75
2022/05/05 11:10:08;;;;;;;;;;;;;;;28.32;14.04;100792.28;5137988;27;19920;-75
2022/05/05 11:12:34;;;;;;;;;;;;;;;28.31;14.19;100796.13;5119372;27;20002;-74
2022/05/05 11:23:33;;;;;;;;;;;;;;;28.31;14.26;100785.13;5074228;28;19978;-74
2022/05/05 11:26:00;;;;;;;;;;;;;;;28.31;14.04;100790.63;5057280;28;20359;-73
2022/05/05 11:28:27;;;;;;;;;;;;;;;28.29;14.17;100792.84;5074199;28;20058;-76
2022/05/05 11:30:52;;;;;;;;;;;;;;;28.29;14.14;100793.66;5057971;28;19916;-75
2022/05/05 11:33:19;;;;;;;;;;;;;;;28.28;14.19;100791.22;5074309;28;20504;-76
2022/05/05 11:35:55;;;;;;;;;;;;;;;28.23;14.19;100794.84;5074389;28;19952;-76
2022/05/05 11:38:21;;;;;;;;;;;;;;;28.17;14.01;100804.28;5073806;28;19917;-76
2022/05/05 11:40:47;;;;;;;;;;;;;;;28.19;14.10;100793.00;5054155;28;20310;-73
2022/05/05 11:45:56;;;;;;;;;;;;;;;28.11;14.42;100791.72;5054364;28;20251;-75
2022/05/05 11:48:21;;;;;;;;;;;;;;;28.09;14.43;100799.44;5053990;28;19917;-76
2022/05/05 11:50:47;;;;;;;;;;;;;;;28.15;14.46;100792.78;5054881;28;19989;-74
2022/05/05 11:53:17;;;;;;;;;;;;;;;28.07;14.48;100797.00;5053965;28;19957;-74
2022/05/05 11:55:45;;;;;;;;;;;;;;;28.08;14.27;100798.63;5053989;28;19917;-75
2022/05/05 11:58:14;;;;;;;;;;;;;;;27.98;14.26;100787.78;5056171;28;19924;-75
2022/05/05 12:03:24;;;;;;;;;;;;;;;27.87;14.28;100787.09;5056213;28;19971;-74
2022/05/05 12:05:52;;;;;;;;;;;;;;;27.95;14.23;100804.84;5056223;28;19996;-75
2022/05/05 12:08:19;;;;;;;;;;;;;;;27.93;14.29;100798.84;5055947;28;19943;-77
2022/05/05 12:10:44;;;;;;;;;;;;;;;27.90;14.55;100802.94;5056190;28;19996;-77
2022/05/05 12:13:09;;;;;;;;;;;;;;;27.90;14.63;100807.63;5055920;28;20010;-75
2022/05/05 12:15:35;;;;;;;;;;;;;;;27.88;14.69;100799.69;5055829;28;19921;-75
2022/05/05 12:18:01;;;;;;;;;;;;;;;27.85;14.83;100807.69;5056145;28;19917;-75
2022/05/05 12:20:27;;;;;;;;;;;;;;;27.46;14.96;100804.03;5055378;28;20291;-76
2022/05/05 12:22:57;;;;;;;;;;;;;;;27.20;14.88;100805.34;5055564;28;19921;-74
2022/05/05 12:25:23;;;;;;;;;;;;;;;27.36;14.80;100804.13;5068024;28;19960;-75
2022/05/05 12:27:57;;;;;;;;;;;;;;;27.38;14.68;100801.91;5075073;28;19948;-76
2022/05/05 12:30:41;;;;;;;;;;;;;;;27.35;14.87;100791.50;5075240;28;19922;-74
2022/05/05 12:33:08;;;;;;;;;;;;;;;27.37;14.92;100794.78;5075310;28;20012;-75
2022/05/05 12:35:33;;;;;;;;;;;;;;;27.57;14.80;100796.50;5074945;28;19916;-75
2022/05/05 12:37:59;;;;;;;;;;;;;;;27.56;14.87;100796.78;5075127;28;20352;-74
2022/05/05 12:40:25;;;;;;;;;;;;;;;27.66;14.88;100802.97;5106867;28;19954;-74
2022/05/05 12:42:50;;;;;;;;;;;;;;;27.25;15.25;100797.91;5116180;28;19943;-74
2022/05/05 12:45:16;;;;;;;;;;;;;;;27.19;15.17;100799.06;5097340;28;19916;-75
2022/05/05 12:47:43;;;;;;;;;;;;;;;27.36;15.12;100793.16;5115459;28;20009;-77
2022/05/05 12:50:27;;;;;;;;;;;;;;;27.45;15.03;100791.41;5115098;28;20362;-75
2022/05/05 13:01:03;;;;;;;;;;;;;;;27.69;14.86;100799.66;5115383;28;19923;-75
2022/05/05 13:03:29;;;;;;;;;;;;;;;27.72;14.59;100801.00;5115041;28;19920;-76
2022/05/05 13:05:54;;;;;;;;;;;;;;;27.72;14.53;100796.31;5115149;28;20338;-74
2022/05/05 13:08:19;;;;;;;;;;;;;;;27.71;14.60;100793.88;5114899;28;19927;-74
2022/05/05 13:10:46;;;;;;;;;;;;;;;27.67;14.56;100799.13;5115113;28;19916;-74
2022/05/05 13:13:12;;;;;;;;;;;;;;;27.70;14.54;100792.25;5114933;28;20026;-73
2022/05/05 13:15:37;;;;;;;;;;;;;;;27.69;14.41;100793.34;5114969;28;20046;-72
2022/05/05 13:18:03;;;;;;;;;;;;;;;27.68;14.36;100791.69;5114525;28;20039;-74
2022/05/05 13:20:28;;;;;;;;;;;;;;;27.65;14.62;100784.06;5096115;28;19969;-75
2022/05/05 13:22:54;;;;;;;;;;;;;;;27.64;14.60;100785.16;5114762;28;19915;-76
2022/05/05 13:25:19;;;;;;;;;;;;;;;27.62;14.32;100792.88;5114242;28;20011;-75
2022/05/05 13:27:46;;;;;;;;;;;;;;;27.58;14.35;100789.91;5114605;28;19923;-75
2022/05/05 13:30:11;;;;;;;;;;;;;;;27.55;14.39;100787.75;5114774;28;20306;-74